Terminal Aerodrome Forecast
Issued by NWS

Home | Current Version | Previous Version | Text Only | Print | Product List | Glossary On
Versions: 1 2 3 4 5 6 7 8 9 10 11 12 13 14 15 16 17 18
000
FTAK31 PAFA 232333
TAFAOT
TAF
PAOT 232333Z 2400/2424 19005KT P6SM -RA FEW004 SCT020 OVC045
     FM241500 11014KT 6SM -RA SCT015 OVC050
     FM241700 12020KT 4SM -RA BR BKN015 OVC050
     FM241900 12022KT 2SM -RA SCT007 BKN012 OVC035
     FM242100 12022G28KT 4SM -RA OVC025=

USA.gov is the U.S. government's official web portal to all federal, state and local government web resources and services.